Impacts TAF Board INFO
FOR SITUATIONAL AWARENESS. NOT TO BE USED FOR FLIGHT PLANNING PURPOSES.
IDs:

KMSP - Minneapolis-St Paul, MN, US

Issued at 1720 UTC 18 Jan 2018
Updated at 1926 UTC 18 Jan 2018
Potential Impact None Slight Moderate High
Time1853Z 18/20Z 18/21Z 18/22Z 18/23Z 19/00Z 19/01Z 19/02Z 19/03Z 19/04Z 19/05Z 19/06Z 19/07Z 19/08Z>>
Type OBS PRVL PRVL PRVL PRVL PRVL PRVL PRVL PRVL PRVL PRVL PRVL PRVL PRVL
VIS 10 >6 >6 >6 >6 >6 >6 >6 >6 >6 >6 >6 >6 >6
CIG -- -- -- -- -- 250 250 250 250 250 250 250 250 250
Cover FEW SCT SCT SCT SCT BKN BKN BKN BKN BKN BKN BKN BKN BKN
FltCat VFR VFR VFR VFR VFR VFR VFR VFR VFR VFR VFR VFR VFR VFR
WX -- -- -- -- -- -- -- -- -- -- -- -- -- --
WDir 250 240 240 240 240 190 190 190 190 190 190 190 190 190
WSpd 8 9 9 9 9 5 5 5 5 5 5 5 5 5
WGst -- -- -- -- -- -- -- -- -- -- -- -- -- --

Raw TAF
KMSP 181720Z 1818/1924 24009KT P6SM SCT250
  FM190000 19005KT P6SM BKN250
  FM190900 18004KT P6SM BKN200
  FM191500 17007KT P6SM BKN150


Raw METAR
KMSP 181853Z 25008KT 10SM FEW250 04/M04 A2982 RMK AO2 SLP109 T00391039
KMSP 181753Z 23006KT 10SM CLR 02/M05 A2985 RMK AO2 SLP120 4/003 T00171050 10017 21050 58009
KMSP 181653Z 24007KT 10SM CLR 00/M06 A2988 RMK AO2 SLP130 T00001061

METAR Board
Radar Display
Forecast Discussion

FOR SITUATIONAL AWARENESS. NOT TO BE USED FOR FLIGHT PLANNING PURPOSES.